Buffalo, SD (57720)

5:25 AM MST on December 08, 2016 (GMT -0700)
Hettinger Municipal | | Change Station
Active Advisory: Wind Chill Advisory

Elev 2703 ft 46.01 °N, 102.66 °W | Updated 32 minutes ago

Partly Cloudy
Partly Cloudy
-6 °F
Feels Like -26 °F
N
13
Wind Variable Wind from NW

Today
High -- | Low -- °F
--% Chance of Precip.
Yesterday
High -- | Low -- °F
Precip. -- in
Pressure 30.78 in
Visibility 10.0 miles
Clouds Clear
Windchill -26 °F
Dew Point -12 °F
Humidity 75%
Rainfall 0.00 in
Snow Depth Not available.
7:22 AM 4:10 PM
Waxing Gibbous, 63% visible
METAR KHEI 081153Z AUTO 31011KT 10SM CLR M21/M24 A3055 RMK AO2 SLP422 T12111244 11183 21211 53006
Pressure 30.78 in
Visibility 10.0 miles
Clouds Clear
Windchill -26 °F
Dew Point -12 °F
Humidity 75%
Rainfall 0.00 in
Snow Depth Not available.
7:22 AM 4:10 PM
Waxing Gibbous, 63% visible
METAR KHEI 081153Z AUTO 31011KT 10SM CLR M21/M24 A3055 RMK AO2 SLP422 T12111244 11183 21211 53006

10-Day Weather Forecast

Almanac

Astronomy

Dec. 08, 2016 Rise Set
Actual Time
Civil Twilight
Nautical Twilight
Astronomical Twilight
Moon
Length of Visible Light
Length of Day
Tomorrow will be .
, % of the Moon is Illuminated

Today's Extremes

State Highs State Lows

Community

WunderPhotos

Upload Photos

1,956,267 photos uploaded!

WunderBlog® & News

Nearby

Air Quality

  Air Quality AQ Index Pollutant
Not available.

Snow Depth

Station Depth Elevation

Earthquake Activity

City Distance Mag. Time & Date
Minimum magnitude displayed is 2.5.

Coastal Water Temperatures

Place Temperature

Stations

Nearby Weather Stations

Station Location Temp. Windchill Dew Point Humidity Wind Precip. Elev Updated Type
                   

Watches & Warnings

Wind Chill Advisory
Issued: 5:05 AM CST Dec. 8, 2016 – National Weather Service

... Wind Chill Advisory remains in effect until 11 am MST /noon
CST/ this morning...

* wind chill values will be as low as 20 below to 30 below zero
through late this morning.

Precautionary/preparedness actions...

A Wind Chill Advisory means that cold air and the wind will
combine to create low wind chills. Frost bite and hypothermia can
occur if precautions are not taken. Make sure you wear a hat and
gloves.